createdAt,value
2023-02-03T00:00:18.968Z,-0.41
2023-02-03T00:03:07.214Z,-0.49
2023-02-03T00:05:37.115Z,-0.50
2023-02-03T00:08:07.151Z,-0.38
2023-02-03T00:10:36.826Z,-0.53
2023-02-03T00:13:04.790Z,-0.46
2023-02-03T00:15:32.499Z,-0.53
2023-02-03T00:18:00.356Z,-0.66
2023-02-03T00:20:28.683Z,-0.76
2023-02-03T00:23:07.030Z,-0.63
2023-02-03T00:25:35.551Z,-0.64
2023-02-03T00:28:04.311Z,-0.74
2023-02-03T00:30:34.681Z,-0.84
2023-02-03T00:33:03.951Z,-0.86
2023-02-03T00:35:31.743Z,-0.82
2023-02-03T00:37:59.683Z,-0.92
2023-02-03T00:40:27.921Z,-0.97
2023-02-03T00:42:56.234Z,-1.00
2023-02-03T00:45:24.444Z,-0.99
2023-02-03T00:47:52.375Z,-0.94
2023-02-03T00:50:20.013Z,-0.85
2023-02-03T00:52:47.996Z,-0.92
2023-02-03T00:55:15.814Z,-1.02
2023-02-03T00:57:43.801Z,-1.09
2023-02-03T01:00:12.270Z,-1.21
2023-02-03T01:02:40.190Z,-1.30
2023-02-03T01:05:08.496Z,-1.25
2023-02-03T01:07:36.432Z,-1.21
2023-02-03T01:10:06.476Z,-1.14
2023-02-03T01:12:34.650Z,-1.19
2023-02-03T01:15:02.342Z,-1.13
2023-02-03T01:17:30.390Z,-1.22
2023-02-03T01:19:58.023Z,-1.27
2023-02-03T01:22:26.047Z,-1.36
2023-02-03T01:24:53.637Z,-1.36
2023-02-03T01:27:21.702Z,-1.48
2023-02-03T01:29:49.668Z,-1.26
2023-02-03T01:32:17.581Z,-1.26
2023-02-03T01:34:45.303Z,-1.29
2023-02-03T01:37:14.566Z,-1.20
2023-02-03T01:39:42.136Z,-1.30
2023-02-03T01:42:14.026Z,-1.35
2023-02-03T01:44:43.487Z,-1.30
2023-02-03T01:47:33.526Z,-1.35
2023-02-03T01:50:04.313Z,-1.26
2023-02-03T01:52:33.849Z,-1.39
2023-02-03T01:55:05.518Z,-1.37
2023-02-03T01:57:39.643Z,-1.34
2023-02-03T02:00:09.462Z,-1.47
2023-02-03T02:02:46.563Z,-1.49
2023-02-03T02:05:27.563Z,-1.57
2023-02-03T02:07:58.467Z,-1.54
2023-02-03T02:10:26.552Z,-1.48
2023-02-03T02:13:00.428Z,-1.43
2023-02-03T02:15:51.092Z,-1.19
2023-02-03T02:18:49.967Z,-1.06
2023-02-03T02:21:23.473Z,-0.91
2023-02-03T02:24:10.319Z,-0.76
2023-02-03T02:26:49.245Z,-0.59
2023-02-03T02:29:27.882Z,-0.56
2023-02-03T02:32:10.820Z,-0.35
2023-02-03T02:35:04.305Z,-0.36
2023-02-03T02:38:15.102Z,-0.28
2023-02-03T02:40:54.446Z,-0.29
2023-02-03T02:43:28.548Z,-0.36
2023-02-03T02:46:06.216Z,-0.26
2023-02-03T02:48:46.634Z,-0.51
2023-02-03T02:51:16.849Z,-0.68
2023-02-03T02:53:52.335Z,-0.59
2023-02-03T02:56:22.101Z,-0.68
2023-02-03T02:58:51.900Z,-0.84
2023-02-03T03:01:20.163Z,-0.95
2023-02-03T03:03:48.056Z,-1.04
2023-02-03T03:06:21.956Z,-0.96
2023-02-03T03:09:00.654Z,-1.09
2023-02-03T03:11:33.411Z,-1.05
2023-02-03T03:14:04.503Z,-1.20
2023-02-03T03:16:37.618Z,-1.20
2023-02-03T03:19:15.292Z,-1.32
2023-02-03T03:21:57.593Z,-1.41
2023-02-03T03:24:31.092Z,-1.47
2023-02-03T03:27:14.037Z,-1.38
2023-02-03T03:29:54.492Z,-1.45
2023-02-03T03:32:23.354Z,-1.55
2023-02-03T03:34:52.353Z,-1.65
2023-02-03T03:37:22.130Z,-1.72
2023-02-03T03:39:59.872Z,-1.77
2023-02-03T03:42:38.076Z,-1.77
2023-02-03T03:45:22.827Z,-1.67
2023-02-03T03:48:01.576Z,-1.65
2023-02-03T03:50:34.048Z,-1.56
2023-02-03T03:53:04.462Z,-1.60
2023-02-03T03:55:35.551Z,-1.69
2023-02-03T03:58:21.103Z,-1.74
2023-02-03T04:00:49.553Z,-1.80
2023-02-03T04:03:28.980Z,-1.85
2023-02-03T04:05:56.569Z,-1.84
2023-02-03T04:08:24.441Z,-1.64
2023-02-03T04:10:52.099Z,-1.61
2023-02-03T04:13:20.734Z,-1.70
2023-02-03T04:15:48.451Z,-1.82
2023-02-03T04:18:17.078Z,-1.85
2023-02-03T04:20:44.798Z,-1.92
2023-02-03T04:23:12.704Z,-1.86
2023-02-03T04:25:40.292Z,-2.04
2023-02-03T04:28:08.293Z,-2.09
2023-02-03T04:30:36.107Z,-2.15
2023-02-03T04:33:04.047Z,-2.18
2023-02-03T04:35:31.707Z,-2.24
2023-02-03T04:37:59.710Z,-2.24
2023-02-03T04:40:27.568Z,-2.26
2023-02-03T04:42:55.731Z,-2.43
2023-02-03T04:45:23.266Z,-2.52
2023-02-03T04:47:54.622Z,-2.49
2023-02-03T04:50:22.496Z,-2.63
2023-02-03T04:52:51.100Z,-2.63
2023-02-03T04:55:18.703Z,-2.71
2023-02-03T04:57:46.530Z,-2.71
2023-02-03T05:00:14.759Z,-2.78
2023-02-03T05:02:42.638Z,-2.82
2023-02-03T05:05:10.367Z,-2.67
2023-02-03T05:07:38.345Z,-2.83
2023-02-03T05:10:06.326Z,-2.94
2023-02-03T05:12:34.250Z,-2.96
2023-02-03T05:15:02.121Z,-2.87
2023-02-03T05:17:30.045Z,-2.94
2023-02-03T05:19:57.732Z,-3.01
2023-02-03T05:22:25.582Z,-3.11
2023-02-03T05:24:53.137Z,-3.07
2023-02-03T05:27:21.131Z,-3.09
2023-02-03T05:29:48.820Z,-3.10
2023-02-03T05:32:16.688Z,-3.09
2023-02-03T05:34:44.258Z,-3.07
2023-02-03T05:37:12.095Z,-2.98
2023-02-03T05:39:39.664Z,-3.04
2023-02-03T05:42:07.535Z,-3.03
2023-02-03T05:44:35.175Z,-3.04
2023-02-03T05:47:03.135Z,-3.02
2023-02-03T05:49:30.794Z,-3.05
2023-02-03T05:51:58.758Z,-3.07
2023-02-03T05:54:26.305Z,-3.04
2023-02-03T05:56:54.300Z,-3.06
2023-02-03T05:59:21.958Z,-3.01
2023-02-03T06:01:49.893Z,-3.03
2023-02-03T06:04:17.631Z,-2.88
2023-02-03T06:06:47.720Z,-2.89
2023-02-03T06:09:15.530Z,-2.79
2023-02-03T06:11:43.446Z,-2.87
2023-02-03T06:14:11.104Z,-2.79
2023-02-03T06:16:38.993Z,-2.66
2023-02-03T06:19:06.719Z,-2.70
2023-02-03T06:21:34.548Z,-2.67
2023-02-03T06:24:02.357Z,-2.59
2023-02-03T06:26:30.297Z,-2.45
2023-02-03T06:28:57.962Z,-2.43
2023-02-03T06:31:26.100Z,-2.29
2023-02-03T06:33:54.105Z,-2.26
2023-02-03T06:36:22.398Z,-2.36
2023-02-03T06:38:50.218Z,-2.18
2023-02-03T06:41:18.152Z,-2.11
2023-02-03T06:43:45.921Z,-1.98
2023-02-03T06:46:13.782Z,-1.93
2023-02-03T06:48:41.432Z,-1.92
2023-02-03T06:51:09.454Z,-1.85
2023-02-03T06:53:37.175Z,-1.65
2023-02-03T06:56:05.414Z,-1.53
2023-02-03T06:58:33.064Z,-1.37
2023-02-03T07:01:01.125Z,-1.36
2023-02-03T07:03:28.857Z,-1.33
2023-02-03T07:05:57.008Z,-1.27
2023-02-03T07:08:24.616Z,-1.18
2023-02-03T07:10:56.001Z,-1.16
2023-02-03T07:13:23.733Z,-1.04
2023-02-03T07:15:52.890Z,-0.93
2023-02-03T07:18:45.467Z,-0.87
2023-02-03T07:21:13.731Z,-0.78
2023-02-03T07:23:41.360Z,-0.66
2023-02-03T07:26:11.196Z,-0.49
2023-02-03T07:28:38.842Z,-0.30
2023-02-03T07:31:10.351Z,0.19
2023-02-03T07:33:39.161Z,0.54
2023-02-03T07:36:08.041Z,0.83
2023-02-03T07:38:35.753Z,1.06
2023-02-03T07:41:04.363Z,1.19
2023-02-03T07:43:32.100Z,1.89
2023-02-03T07:46:01.805Z,2.14
2023-02-03T07:48:29.575Z,2.30
2023-02-03T07:50:57.480Z,2.60
2023-02-03T07:53:25.147Z,2.61
2023-02-03T07:55:53.037Z,2.39
2023-02-03T07:58:21.053Z,2.19
2023-02-03T08:00:48.923Z,2.00
2023-02-03T08:03:16.562Z,1.96
2023-02-03T08:05:44.466Z,2.27
2023-02-03T08:08:12.180Z,2.39
2023-02-03T08:10:40.204Z,2.60
2023-02-03T08:13:08.064Z,3.15
2023-02-03T08:15:36.267Z,3.38
2023-02-03T08:18:04.578Z,3.53
2023-02-03T08:20:32.502Z,3.64
2023-02-03T08:23:00.147Z,3.71
2023-02-03T08:25:28.126Z,3.75
2023-02-03T08:27:55.832Z,4.10
2023-02-03T08:30:24.554Z,4.26
2023-02-03T08:32:56.298Z,4.27
2023-02-03T08:35:24.945Z,4.43
2023-02-03T08:40:15.162Z,4.48
2023-02-03T08:42:43.234Z,4.34
2023-02-03T08:45:11.423Z,4.24
2023-02-03T08:47:39.420Z,4.38
2023-02-03T08:50:09.223Z,4.50
2023-02-03T08:52:37.318Z,4.69
2023-02-03T08:55:05.434Z,4.76
2023-02-03T08:57:37.600Z,4.74
2023-02-03T09:00:06.505Z,4.83
2023-02-03T09:02:34.507Z,4.73
2023-02-03T09:05:02.289Z,4.56
2023-02-03T09:07:30.583Z,4.49
2023-02-03T09:09:58.263Z,4.51
2023-02-03T09:12:26.288Z,4.79
2023-02-03T09:14:54.040Z,4.97
2023-02-03T09:17:22.021Z,5.02
2023-02-03T09:19:49.757Z,5.35
2023-02-03T09:22:17.782Z,6.04
2023-02-03T09:24:45.696Z,6.50
2023-02-03T09:27:13.632Z,6.43
2023-02-03T09:29:41.357Z,6.00
2023-02-03T09:32:10.741Z,5.73
2023-02-03T09:34:41.603Z,5.64
2023-02-03T09:37:09.785Z,5.94
2023-02-03T09:39:37.474Z,6.38
2023-02-03T09:42:56.443Z,6.24
2023-02-03T09:45:28.868Z,5.91
2023-02-03T09:48:10.008Z,6.16
2023-02-03T09:50:40.859Z,6.08
2023-02-03T09:53:35.499Z,5.95
2023-02-03T09:56:03.210Z,5.29
2023-02-03T09:58:34.582Z,5.46
2023-02-03T10:01:06.849Z,5.45
2023-02-03T10:03:51.715Z,5.41
2023-02-03T10:06:43.215Z,5.58
2023-02-03T10:09:40.891Z,5.43
2023-02-03T10:12:34.595Z,5.53
2023-02-03T10:15:40.439Z,5.93
2023-02-03T10:18:16.441Z,6.78
2023-02-03T10:20:52.271Z,6.38
2023-02-03T10:23:24.213Z,6.04
2023-02-03T10:25:57.431Z,5.26
2023-02-03T10:28:31.211Z,5.20
2023-02-03T10:31:02.942Z,5.23
2023-02-03T10:33:32.095Z,5.53
2023-02-03T10:36:21.466Z,5.30
2023-02-03T10:39:15.435Z,4.95
2023-02-03T10:41:43.538Z,4.59
2023-02-03T10:44:15.129Z,4.45
2023-02-03T10:46:45.451Z,4.14
2023-02-03T10:49:16.438Z,3.90
2023-02-03T10:52:02.306Z,3.59
2023-02-03T10:54:34.683Z,3.71
2023-02-03T10:57:06.801Z,3.66
2023-02-03T10:59:45.664Z,3.56
2023-02-03T11:02:29.431Z,3.68
2023-02-03T11:05:33.634Z,3.81
2023-02-03T11:08:01.737Z,3.66
2023-02-03T11:10:35.979Z,3.64
2023-02-03T11:13:09.896Z,4.05
2023-02-03T11:15:38.011Z,3.82
2023-02-03T11:18:05.959Z,3.96
2023-02-03T11:20:37.192Z,3.79
2023-02-03T11:23:06.018Z,3.87
2023-02-03T11:25:33.809Z,3.95
2023-02-03T11:28:07.301Z,3.94
2023-02-03T11:30:35.053Z,3.97
2023-02-03T11:33:03.848Z,4.05
2023-02-03T11:35:33.648Z,3.49
2023-02-03T11:38:02.344Z,3.42
2023-02-03T11:40:32.657Z,3.72
2023-02-03T11:43:14.398Z,3.56
2023-02-03T11:45:54.563Z,3.73
2023-02-03T11:48:30.937Z,3.66
2023-02-03T11:51:17.392Z,3.62
2023-02-03T11:54:05.051Z,3.44
2023-02-03T11:56:50.761Z,3.76
2023-02-03T11:59:50.390Z,3.48
2023-02-03T12:02:42.940Z,3.30
2023-02-03T12:05:22.836Z,3.18
2023-02-03T12:07:59.339Z,3.10
2023-02-03T12:10:46.068Z,3.15
2023-02-03T12:13:36.832Z,3.08
2023-02-03T12:16:19.857Z,2.93
2023-02-03T12:19:02.303Z,3.14
2023-02-03T12:21:33.007Z,2.99
2023-02-03T12:24:25.439Z,2.88
2023-02-03T12:27:03.579Z,2.74
2023-02-03T12:29:38.635Z,2.81
2023-02-03T12:32:25.414Z,2.95
2023-02-03T12:34:59.069Z,2.83
2023-02-03T12:37:29.338Z,2.74
2023-02-03T12:40:12.420Z,2.77
2023-02-03T12:42:53.505Z,2.84
2023-02-03T12:45:36.948Z,2.77
2023-02-03T12:48:11.761Z,2.77
2023-02-03T12:50:41.095Z,2.82
2023-02-03T12:53:35.099Z,2.64
2023-02-03T12:56:16.468Z,2.76
2023-02-03T12:58:54.405Z,2.58
2023-02-03T13:01:23.834Z,2.60
2023-02-03T13:04:16.080Z,2.50
2023-02-03T13:07:13.029Z,2.57
2023-02-03T13:09:49.041Z,2.54
2023-02-03T13:12:30.833Z,2.43
2023-02-03T13:15:20.826Z,2.40
2023-02-03T13:18:04.467Z,2.28
2023-02-03T13:20:36.174Z,2.17
2023-02-03T13:23:12.591Z,2.14
2023-02-03T13:26:03.349Z,2.35
2023-02-03T13:28:59.843Z,2.13
2023-02-03T13:31:39.705Z,2.19
2023-02-03T13:34:19.314Z,2.12
2023-02-03T13:37:06.355Z,2.06
2023-02-03T13:39:52.583Z,2.16
2023-02-03T13:42:33.461Z,2.10
2023-02-03T13:45:17.026Z,2.03
2023-02-03T13:47:54.989Z,2.08
2023-02-03T13:50:29.944Z,1.95
2023-02-03T13:53:07.186Z,1.89
2023-02-03T13:55:39.524Z,1.76
2023-02-03T13:58:22.037Z,1.68
2023-02-03T14:00:52.618Z,1.64
2023-02-03T14:03:26.688Z,1.48
2023-02-03T14:05:58.223Z,1.36
2023-02-03T14:08:26.318Z,1.20
2023-02-03T14:11:35.758Z,1.29
2023-02-03T14:14:09.208Z,1.18
2023-02-03T14:16:41.544Z,1.10
2023-02-03T14:19:33.680Z,1.03
2023-02-03T14:22:17.590Z,1.06
2023-02-03T14:24:47.901Z,0.96
2023-02-03T14:27:25.991Z,0.65
2023-02-03T14:30:08.378Z,0.75
2023-02-03T14:32:54.372Z,0.51
2023-02-03T14:35:35.172Z,0.39
2023-02-03T14:38:10.711Z,0.46
2023-02-03T14:40:56.462Z,0.41
2023-02-03T14:43:30.143Z,0.33
2023-02-03T14:46:00.893Z,0.31
2023-02-03T14:48:46.221Z,0.16
2023-02-03T14:51:16.957Z,0.15
2023-02-03T14:53:53.717Z,0.15
2023-02-03T14:57:05.335Z,0.08
2023-02-03T14:59:56.478Z,-0.09
2023-02-03T15:02:27.586Z,0.10
2023-02-03T15:05:13.815Z,0.21
2023-02-03T15:07:48.832Z,-0.05
2023-02-03T15:10:19.747Z,0.08
2023-02-03T15:12:52.925Z,-0.04
2023-02-03T15:15:29.826Z,-0.10
2023-02-03T15:18:19.357Z,0.06
2023-02-03T15:20:53.285Z,0.02
2023-02-03T15:23:30.547Z,0.04
2023-02-03T15:26:01.067Z,0.05
2023-02-03T15:28:30.470Z,-0.01
2023-02-03T15:31:22.749Z,-0.09
2023-02-03T15:33:52.728Z,-0.05
2023-02-03T15:36:34.508Z,-0.06
2023-02-03T15:39:24.360Z,0.03
2023-02-03T15:41:54.792Z,-0.05
2023-02-03T15:44:45.798Z,-0.08
2023-02-03T15:47:41.271Z,-0.19
2023-02-03T15:50:20.135Z,-0.15
2023-02-03T15:52:51.637Z,-0.13
2023-02-03T15:55:36.604Z,-0.29
2023-02-03T15:58:04.831Z,-0.09
2023-02-03T16:00:39.992Z,-0.12
2023-02-03T16:03:22.137Z,-0.21
2023-02-03T16:05:50.678Z,-0.14
2023-02-03T16:08:38.872Z,-0.12
2023-02-03T16:11:30.169Z,-0.17
2023-02-03T16:14:00.937Z,-0.19
2023-02-03T16:17:03.815Z,-0.15
2023-02-03T16:19:34.574Z,-0.15
2023-02-03T16:22:02.586Z,-0.14
2023-02-03T16:24:33.378Z,-0.12
2023-02-03T16:27:26.221Z,-0.21
2023-02-03T16:30:33.765Z,-0.22
2023-02-03T16:33:34.699Z,-0.17
2023-02-03T16:36:30.294Z,-0.24
2023-02-03T16:39:20.884Z,-0.13
2023-02-03T16:42:07.557Z,-0.15
2023-02-03T16:44:54.413Z,-0.11
2023-02-03T16:47:43.503Z,-0.17
2023-02-03T16:50:40.504Z,-0.20
2023-02-03T16:53:15.092Z,-0.18
2023-02-03T16:55:45.878Z,-0.15
2023-02-03T16:58:13.750Z,-0.27
2023-02-03T17:00:44.596Z,-0.21
2023-02-03T17:03:18.858Z,-0.16
2023-02-03T17:05:47.892Z,-0.16
2023-02-03T17:08:17.677Z,-0.27
2023-02-03T17:10:48.016Z,-0.12
2023-02-03T17:13:17.051Z,-0.07
2023-02-03T17:15:47.720Z,-0.07
2023-02-03T17:18:16.658Z,-0.02
2023-02-03T17:20:45.692Z,-0.01
2023-02-03T17:23:16.356Z,-0.12
2023-02-03T17:25:48.727Z,-0.08
2023-02-03T17:28:17.387Z,-0.12
2023-02-03T17:30:45.884Z,-0.08
2023-02-03T17:33:13.682Z,-0.02
2023-02-03T17:35:44.024Z,0.01
2023-02-03T17:38:15.064Z,0.00
2023-02-03T17:54:39.366Z,-0.12
2023-02-03T17:57:07.591Z,0.04
2023-02-03T17:59:37.782Z,0.06
2023-02-03T18:02:05.987Z,0.08
2023-02-03T18:04:35.030Z,0.18
2023-02-03T18:07:03.144Z,0.12
2023-02-03T18:09:31.099Z,0.08
2023-02-03T18:11:59.249Z,0.01
2023-02-03T18:14:27.263Z,0.17
2023-02-03T18:16:55.518Z,0.18
2023-02-03T18:19:23.306Z,0.21
2023-02-03T18:21:51.413Z,0.21
2023-02-03T18:24:22.368Z,0.24
2023-02-03T18:26:51.829Z,0.20
2023-02-03T18:29:20.255Z,0.04
2023-02-03T18:31:48.698Z,0.19
2023-02-03T18:34:17.657Z,0.22
2023-02-03T18:36:46.314Z,0.23
2023-02-03T18:39:15.265Z,0.03
2023-02-03T18:41:43.749Z,0.22
2023-02-03T18:44:11.531Z,0.11
2023-02-03T18:46:40.010Z,0.16
2023-02-03T18:49:09.533Z,0.13
2023-02-03T18:51:37.639Z,0.07
2023-02-03T18:54:05.698Z,0.18
2023-02-03T18:56:35.499Z,0.30
2023-02-03T18:59:09.783Z,0.29
2023-02-03T19:01:41.514Z,0.18
2023-02-03T19:04:09.271Z,0.33
2023-02-03T19:06:37.777Z,0.28
2023-02-03T19:09:06.004Z,0.21
2023-02-03T19:11:35.076Z,0.24
2023-02-03T19:14:03.058Z,0.25
2023-02-03T19:16:31.472Z,0.32
2023-02-03T19:18:59.219Z,0.37
2023-02-03T19:21:27.243Z,0.29
2023-02-03T19:23:55.038Z,0.26
2023-02-03T19:26:23.033Z,0.19
2023-02-03T19:28:51.732Z,0.31
2023-02-03T19:31:19.695Z,0.31
2023-02-03T19:33:47.400Z,0.25
2023-02-03T19:36:15.368Z,0.19
2023-02-03T19:38:44.291Z,0.14
2023-02-03T19:41:12.420Z,0.24
2023-02-03T19:43:40.430Z,0.26
2023-02-03T19:46:09.041Z,0.31
2023-02-03T19:48:37.008Z,0.30
2023-02-03T19:51:05.412Z,0.35
2023-02-03T19:53:33.095Z,0.36
2023-02-03T19:56:01.023Z,0.31
2023-02-03T19:58:30.711Z,0.28
2023-02-03T20:00:58.818Z,0.30
2023-02-03T20:03:26.822Z,0.27
2023-02-03T20:05:54.854Z,0.30
2023-02-03T20:08:22.958Z,0.30
2023-02-03T20:10:51.998Z,0.27
2023-02-03T20:13:19.666Z,0.28
2023-02-03T20:15:47.824Z,0.37
2023-02-03T20:18:15.772Z,0.30
2023-02-03T20:20:43.823Z,0.30
2023-02-03T20:23:11.649Z,0.17
2023-02-03T20:25:39.689Z,0.17
2023-02-03T20:28:07.588Z,0.25
2023-02-03T20:30:36.717Z,0.29
2023-02-03T20:33:04.858Z,0.38
2023-02-03T20:35:32.851Z,0.40
2023-02-03T20:38:00.550Z,0.32
2023-02-03T20:40:29.829Z,0.40
2023-02-03T20:43:02.580Z,0.43
2023-02-03T20:45:30.964Z,0.37
2023-02-03T20:47:59.124Z,0.33
2023-02-03T20:50:37.477Z,0.48
2023-02-03T20:53:15.111Z,0.50
2023-02-03T20:55:43.192Z,0.49
2023-02-03T20:58:23.459Z,0.38
2023-02-03T21:00:52.154Z,0.40
2023-02-03T21:03:39.417Z,0.43
2023-02-03T21:06:17.482Z,0.31
2023-02-03T21:08:47.095Z,0.36
2023-02-03T21:11:17.625Z,0.28
2023-02-03T21:13:46.524Z,0.27
2023-02-03T21:16:20.643Z,0.18
2023-02-03T21:18:48.625Z,0.14
2023-02-03T21:21:27.443Z,0.18
2023-02-03T21:23:56.019Z,0.11
2023-02-03T21:26:29.251Z,0.15
2023-02-03T21:28:59.119Z,0.07
2023-02-03T21:31:37.282Z,0.09
2023-02-03T21:34:23.008Z,0.09
2023-02-03T21:36:51.016Z,-0.01
2023-02-03T21:39:37.474Z,0.05
2023-02-03T21:42:41.013Z,0.12
2023-02-03T21:45:16.003Z,0.18
2023-02-03T21:47:45.820Z,0.14
2023-02-03T21:50:34.602Z,0.14
2023-02-03T21:53:21.718Z,0.16
2023-02-03T21:55:49.901Z,0.21
2023-02-03T21:58:23.929Z,0.24
2023-02-03T22:00:54.226Z,0.25
2023-02-03T22:03:28.399Z,0.15
2023-02-03T22:06:05.157Z,0.21
2023-02-03T22:08:44.448Z,0.14
2023-02-03T22:11:13.512Z,0.14
2023-02-03T22:13:42.742Z,0.05
2023-02-03T22:16:10.899Z,0.10
2023-02-03T22:18:39.773Z,0.08
2023-02-03T22:21:07.909Z,0.05
2023-02-03T22:23:35.870Z,0.13
2023-02-03T22:26:03.717Z,-0.01
2023-02-03T22:28:31.671Z,0.07
2023-02-03T22:30:59.385Z,0.03
2023-02-03T22:33:27.372Z,-0.05
2023-02-03T22:35:55.037Z,-0.17
2023-02-03T22:38:23.111Z,-0.25
2023-02-03T22:40:50.870Z,-0.25
2023-02-03T22:43:18.779Z,-0.32
2023-02-03T22:45:46.510Z,-0.28
2023-02-03T22:48:14.474Z,-0.26
2023-02-03T22:50:42.394Z,-0.22
2023-02-03T22:53:10.560Z,-0.31
2023-02-03T22:55:39.035Z,-0.36
2023-02-03T22:58:07.778Z,-0.18
2023-02-03T23:00:35.868Z,-0.25
2023-02-03T23:03:05.088Z,-0.23
2023-02-03T23:05:33.115Z,-0.37
2023-02-03T23:08:01.307Z,-0.36
2023-02-03T23:10:31.092Z,-0.29
2023-02-03T23:13:00.921Z,-0.35
2023-02-03T23:15:29.236Z,-0.46
2023-02-03T23:17:57.346Z,-0.52
2023-02-03T23:20:25.088Z,-0.44
2023-02-03T23:22:53.267Z,-0.47
2023-02-03T23:25:21.123Z,-0.63
2023-02-03T23:27:49.063Z,-0.51
2023-02-03T23:30:16.838Z,-0.61
2023-02-03T23:32:44.777Z,-0.62
2023-02-03T23:35:31.588Z,-0.65
2023-02-03T23:37:59.587Z,-0.68
2023-02-03T23:40:27.364Z,-0.78
2023-02-03T23:42:55.321Z,-0.80
2023-02-03T23:45:23.047Z,-0.78
2023-02-03T23:47:51.533Z,-0.82
2023-02-03T23:50:20.115Z,-0.86
2023-02-03T23:52:48.805Z,-0.86
2023-02-03T23:55:19.258Z,-0.86
2023-02-03T23:57:47.390Z,-0.79
